COP2 weather

Orillia (Ontario Provincial Police) Heliport
Orillia, Ontario, Canada

Public forecast

Using degrees Celsius for public forecast. Weather courtesy of forecast.io.

METAR (pilot weather report)

Closest report is Muskoka Airport, 24.0 nm (44.5 km) NNE. Retrieved 2019/05/24 06:00 UTC (43 minutes ago):

CYQA 240600Z AUTO 30008KT 9SM FEW021 10/08 A2989 RMK SLP126

TAF (pilot weather forecast)

Forecast is more than 6 hours old.

Closest forecast is Muskoka Airport, 24.0 nm (44.5 km) NNE. Retrieved 2019/05/23 20:00 UTC (11 hours ago):

TAF CYQA 231940Z 2320/2402 20008KT P6SM SCT010 BKN025 OVC040 TEMPO 2320/2321 VRB15G30KT 2SM TSRA BR BKN007 OVC020CB FM232030 28015G25KT P6SM BKN025 FM232300 28012KT P6SM SCT030 RMK FCST BASED ON AUTO OBS. NXT FCST WILL BE ISSUED AT 241145Z